Aviation Digital Data Service (ADDS)

Output produced by METARs form (0604 UTC 24 January 2019)
found at http://aviationweather.gov/metar/data/
 
KASD 240553Z AUTO 34010G18KT 10SM OVC013 03/01 A3001 RMK AO2 SLP160 60001 T00330006 10128 20033 402060033 51019
KASD 240545Z AUTO 32012G18KT 10SM OVC011 03/01 A3001 RMK AO2 CIG 006V013 T00330011
KASD 240513Z AUTO 32009G16KT 290V350 10SM OVC009 04/02 A3000 RMK AO2 CIG 007V013 T00390022
KASD 240534Z 2406/2506 32009G16KT P6SM OVC009 
     FM240700 32010KT P6SM BKN022 
     FM241000 33007KT P6SM SCT080 
     FM241400 34006KT P6SM FEW250 
     FM242200 VRB04KT P6SM SKC